Time;durP1;ratioP1;P1;durP2;ratioP2;P2;SDS_P1;SDS_P2;PMS_P1;PMS_P2;Temp;Humidity;BMP_temperature;BMP_pressure;BME280_temperature;BME280_humidity;BME280_pressure;Samples;Min_cycle;Max_cycle;Signal;HPM_P1;HPM_P2
2022/06/11 00:01:38;;;;;;;;;;;;;;;;;;4949815;28;20413;-70
2022/06/11 00:04:07;;;;;;;5.13;3.25;;;;;;;;;;4950313;28;20376;-70
2022/06/11 00:06:36;;;;;;;6.80;3.03;;;;;;;;;;4949906;28;20025;-69
2022/06/11 00:09:02;;;;;;;3.88;2.47;;;;;;;;;;4949806;28;20402;-71
2022/06/11 00:11:27;;;;;;;4.00;2.53;;;;;;;;;;4950079;28;20340;-69
2022/06/11 00:13:53;;;;;;;7.05;2.75;;;;;;;;;;4950070;28;20364;-70
2022/06/11 00:16:21;;;;;;;4.88;2.70;;;;;;;;;;4948326;28;20030;-70
2022/06/11 00:18:47;;;;;;;3.13;2.17;;;;;;;;;;4948979;28;20425;-70
2022/06/11 00:21:13;;;;;;;4.32;2.65;;;;;;;;;;4951648;28;20459;-70
2022/06/11 00:23:39;;;;;;;3.20;2.05;;;;;;;;;;4969151;28;20428;-71
2022/06/11 00:26:05;;;;;;;7.50;2.47;;;;;;;;;;4951776;28;20048;-70
2022/06/11 00:28:31;;;;;;;4.47;2.60;;;;;;;;;;4970249;28;20408;-70
2022/06/11 00:30:56;;;;;;;3.15;2.30;;;;;;;;;;4969205;28;20026;-70
2022/06/11 00:33:22;;;;;;;3.97;2.20;;;;;;;;;;4969664;28;20455;-69
2022/06/11 00:35:47;;;;;;;3.85;2.20;;;;;;;;;;4951606;28;20392;-70
2022/06/11 00:38:14;;;;;;;5.05;2.83;;;;;;;;;;4951606;28;20045;-69
2022/06/11 00:40:41;;;;;;;3.60;2.67;;;;;;;;;;4970134;28;20424;-70
2022/06/11 00:43:07;;;;;;;3.97;2.25;;;;;;;;;;4969158;28;20482;-70
2022/06/11 00:45:43;;;;;;;3.50;2.38;;;;;;;;;;4968725;28;20441;-70
2022/06/11 00:48:09;;;;;;;5.00;2.30;;;;;;;;;;4968928;28;20450;-70
2022/06/11 00:50:56;;;;;;;3.88;2.30;;;;;;;;;;4969384;28;20417;-69
2022/06/11 00:53:33;;;;;;;3.42;2.15;;;;;;;;;;4951163;28;20052;-69
2022/06/11 00:55:58;;;;;;;5.30;2.13;;;;;;;;;;4951307;28;20494;-69
2022/06/11 00:58:27;;;;;;;3.13;2.03;;;;;;;;;;4951799;28;20620;-70
2022/06/11 01:00:56;;;;;;;2.38;1.92;;;;;;;;;;4957955;28;20059;-70
2022/06/11 01:03:34;;;;;;;4.45;2.13;;;;;;;;;;4982051;28;20021;-70
2022/06/11 01:06:06;;;;;;;4.20;2.35;;;;;;;;;;4989433;28;20408;-69
2022/06/11 01:08:50;;;;;;;3.63;2.10;;;;;;;;;;4988849;28;20083;-70
2022/06/11 01:11:16;;;;;;;5.13;1.90;;;;;;;;;;4971173;28;20075;-70
2022/06/11 01:14:06;;;;;;;3.30;2.10;;;;;;;;;;4990273;28;20408;-69
2022/06/11 01:16:50;;;;;;;3.15;2.35;;;;;;;;;;4988415;28;20470;-69
2022/06/11 01:19:26;;;;;;;3.67;2.47;;;;;;;;;;4988193;28;20418;-70
2022/06/11 01:22:10;;;;;;;2.75;1.83;;;;;;;;;;4970491;28;20414;-69
2022/06/11 01:24:55;;;;;;;3.75;2.50;;;;;;;;;;4988670;28;20367;-70
2022/06/11 01:27:43;;;;;;;3.40;2.08;;;;;;;;;;4971138;28;20428;-69
2022/06/11 01:30:21;;;;;;;2.05;1.67;;;;;;;;;;4988372;28;20412;-69
2022/06/11 01:33:02;;;;;;;3.47;2.08;;;;;;;;;;4970488;28;20025;-69
2022/06/11 01:35:48;;;;;;;3.08;2.10;;;;;;;;;;4988364;28;20465;-71
2022/06/11 01:38:33;;;;;;;2.42;1.88;;;;;;;;;;4970507;28;20359;-70
2022/06/11 01:41:14;;;;;;;2.60;2.08;;;;;;;;;;4988129;28;20112;-70
2022/06/11 01:43:44;;;;;;;3.53;2.15;;;;;;;;;;4971587;28;20379;-69
2022/06/11 01:46:18;;;;;;;4.80;2.38;;;;;;;;;;4970693;28;20033;-70
2022/06/11 01:48:52;;;;;;;6.05;2.05;;;;;;;;;;4973681;28;20091;-70
2022/06/11 01:51:40;;;;;;;3.78;2.20;;;;;;;;;;4991513;28;20467;-70
2022/06/11 01:54:19;;;;;;;3.17;1.90;;;;;;;;;;4973599;28;20363;-70
2022/06/11 01:56:58;;;;;;;2.88;1.88;;;;;;;;;;4991833;28;20589;-70
2022/06/11 01:59:34;;;;;;;2.83;1.83;;;;;;;;;;4973514;28;20514;-70
2022/06/11 02:02:14;;;;;;;2.83;1.88;;;;;;;;;;4993054;28;20434;-70
2022/06/11 02:04:46;;;;;;;3.47;2.00;;;;;;;;;;4973560;28;20399;-70
2022/06/11 02:07:19;;;;;;;3.83;2.08;;;;;;;;;;4992119;28;20442;-70
2022/06/11 02:09:50;;;;;;;3.97;2.10;;;;;;;;;;4973582;28;20444;-69
2022/06/11 02:12:24;;;;;;;2.78;1.90;;;;;;;;;;4991281;28;20033;-70
2022/06/11 02:14:55;;;;;;;2.63;1.58;;;;;;;;;;4973342;28;20469;-70
2022/06/11 02:17:33;;;;;;;2.42;1.77;;;;;;;;;;4991043;28;20436;-70
2022/06/11 02:20:06;;;;;;;2.97;2.08;;;;;;;;;;4969482;28;20045;-70
2022/06/11 02:22:41;;;;;;;3.85;2.22;;;;;;;;;;4971576;28;20344;-69
2022/06/11 02:25:22;;;;;;;2.80;1.77;;;;;;;;;;4971699;28;20048;-71
2022/06/11 02:27:49;;;;;;;3.92;2.13;;;;;;;;;;4953509;28;20045;-70
2022/06/11 02:30:19;;;;;;;3.20;1.42;;;;;;;;;;4970188;28;20033;-70
2022/06/11 02:32:44;;;;;;;2.78;1.98;;;;;;;;;;4969646;28;20448;-70
2022/06/11 02:35:13;;;;;;;2.42;1.90;;;;;;;;;;4970637;28;20448;-70
2022/06/11 02:37:42;;;;;;;3.03;1.90;;;;;;;;;;4953372;28;20396;-70
2022/06/11 02:40:19;;;;;;;;;;;;;;;;;;4970178;28;20573;-70
2022/06/11 02:42:45;;;;;;;3.40;2.05;;;;;;;;;;4986220;28;20328;-70
2022/06/11 02:45:12;;;;;;;4.03;1.98;;;;;;;;;;4969282;28;20426;-70
2022/06/11 02:47:39;;;;;;;2.55;1.75;;;;;;;;;;4969289;28;20431;-70
2022/06/11 02:50:06;;;;;;;2.30;1.83;;;;;;;;;;4969641;28;20400;-70
2022/06/11 02:52:31;;;;;;;2.78;1.95;;;;;;;;;;4969825;28;20360;-71
2022/06/11 02:54:56;;;;;;;2.08;1.60;;;;;;;;;;4970594;28;20342;-70
2022/06/11 02:57:25;;;;;;;2.72;1.48;;;;;;;;;;4969344;28;20427;-70
2022/06/11 02:59:51;;;;;;;;;;;;;;;;;;4972132;28;20314;-70
2022/06/11 03:02:17;;;;;;;2.10;1.67;;;;;;;;;;4985501;28;20240;-70
2022/06/11 03:04:43;;;;;;;2.83;2.00;;;;;;;;;;4970790;28;20361;-71
2022/06/11 03:07:09;;;;;;;2.60;2.03;;;;;;;;;;4971055;28;20305;-70
2022/06/11 03:09:36;;;;;;;7.40;1.88;;;;;;;;;;4970854;28;20420;-70
2022/06/11 03:12:02;;;;;;;2.05;1.65;;;;;;;;;;4969108;28;20494;-70
2022/06/11 03:14:28;;;;;;;2.15;1.80;;;;;;;;;;4970237;28;20356;-70
2022/06/11 03:16:53;;;;;;;2.53;1.77;;;;;;;;;;4970054;28;20368;-70
2022/06/11 03:19:21;;;;;;;1.95;1.75;;;;;;;;;;4974551;28;20460;-70
2022/06/11 03:21:53;;;;;;;3.00;2.17;;;;;;;;;;4955667;28;20430;-70
2022/06/11 03:24:19;;;;;;;4.93;1.92;;;;;;;;;;4990551;28;20443;-70
2022/06/11 03:26:45;;;;;;;3.80;2.10;;;;;;;;;;4971935;28;20482;-70
2022/06/11 03:29:11;;;;;;;2.05;1.67;;;;;;;;;;4972445;28;20468;-70
2022/06/11 03:31:37;;;;;;;2.65;1.58;;;;;;;;;;4971948;28;20039;-70
2022/06/11 03:34:03;;;;;;;1.92;1.63;;;;;;;;;;4989826;28;20457;-70
2022/06/11 03:36:29;;;;;;;2.97;1.90;;;;;;;;;;4972077;28;20091;-70
2022/06/11 03:38:55;;;;;;;4.30;1.63;;;;;;;;;;4972087;28;20416;-70
2022/06/11 03:41:23;;;;;;;2.45;1.73;;;;;;;;;;4971862;28;20463;-71
2022/06/11 03:43:50;;;;;;;2.03;1.55;;;;;;;;;;4990534;28;20436;-70
2022/06/11 03:46:16;;;;;;;2.92;2.00;;;;;;;;;;4971029;28;20363;-70
2022/06/11 03:48:42;;;;;;;2.97;1.52;;;;;;;;;;4990092;28;20344;-70
2022/06/11 03:51:08;;;;;;;2.55;2.30;;;;;;;;;;4971030;28;20136;-70
2022/06/11 03:53:35;;;;;;;3.90;1.80;;;;;;;;;;4971360;28;20398;-70
2022/06/11 03:56:02;;;;;;;2.50;1.80;;;;;;;;;;4971784;28;20096;-70
2022/06/11 03:58:27;;;;;;;2.53;1.55;;;;;;;;;;4954629;28;20364;-70
2022/06/11 04:03:38;;;;;;;2.00;1.60;;;;;;;;;;4989263;28;20052;-70
2022/06/11 04:06:04;;;;;;;2.25;1.63;;;;;;;;;;4970819;28;20436;-70
2022/06/11 04:08:30;;;;;;;6.75;2.03;;;;;;;;;;4990172;28;20455;-70
2022/06/11 04:10:59;;;;;;;3.70;2.38;;;;;;;;;;4954858;28;20384;-70
2022/06/11 04:13:26;;;;;;;2.05;1.48;;;;;;;;;;4972587;28;20383;-70
2022/06/11 04:15:51;;;;;;;3.25;2.03;;;;;;;;;;4971403;28;20348;-70
2022/06/11 04:18:38;;;;;;;2.80;1.50;;;;;;;;;;4971767;28;20390;-70
2022/06/11 04:21:07;;;;;;;2.60;2.05;;;;;;;;;;4967371;28;20372;-70
2022/06/11 04:23:32;;;;;;;;;;;;;;;;;;4969923;28;20079;-71
2022/06/11 04:26:02;;;;;;;2.50;1.60;;;;;;;;;;4969264;28;20007;-70
2022/06/11 04:28:29;;;;;;;2.60;1.90;;;;;;;;;;4969192;28;20377;-70
2022/06/11 04:30:57;;;;;;;2.38;1.73;;;;;;;;;;4968045;28;20029;-71
2022/06/11 04:33:22;;;;;;;2.25;1.63;;;;;;;;;;4970794;28;20332;-70
2022/06/11 04:35:47;;;;;;;2.00;1.60;;;;;;;;;;4967831;28;20325;-71
2022/06/11 04:38:13;;;;;;;2.85;1.60;;;;;;;;;;4967357;28;20436;-70
2022/06/11 04:40:38;;;;;;;3.28;1.63;;;;;;;;;;4969155;28;20089;-70
2022/06/11 04:43:04;;;;;;;2.97;1.88;;;;;;;;;;4969005;28;20417;-71
2022/06/11 04:45:30;;;;;;;2.00;1.42;;;;;;;;;;4969279;28;20048;-70
2022/06/11 04:47:55;;;;;;;2.22;1.70;;;;;;;;;;4969306;28;20551;-70
2022/06/11 04:50:21;;;;;;;2.05;1.48;;;;;;;;;;4968684;28;20437;-70
2022/06/11 04:52:47;;;;;;;2.50;1.70;;;;;;;;;;4967769;28;20447;-70
2022/06/11 04:55:14;;;;;;;3.60;1.77;;;;;;;;;;4968898;28;20371;-70
2022/06/11 04:57:40;;;;;;;1.95;1.48;;;;;;;;;;4969079;28;20395;-70
2022/06/11 05:00:07;;;;;;;2.47;1.80;;;;;;;;;;4967520;28;20415;-69
2022/06/11 05:02:32;;;;;;;2.95;1.92;;;;;;;;;;4969929;28;20483;-70
2022/06/11 05:04:58;;;;;;;2.42;1.50;;;;;;;;;;4968845;28;20381;-72
2022/06/11 05:07:23;;;;;;;3.53;1.77;;;;;;;;;;4968922;28;20048;-70
2022/06/11 05:09:49;;;;;;;1.55;1.45;;;;;;;;;;4969259;28;20495;-69
2022/06/11 05:12:15;;;;;;;2.47;1.77;;;;;;;;;;4967254;28;20029;-70
2022/06/11 05:14:41;;;;;;;1.80;1.50;;;;;;;;;;4969584;28;20470;-70
2022/06/11 05:17:07;;;;;;;2.80;1.60;;;;;;;;;;4967290;28;20452;-70
2022/06/11 05:19:33;;;;;;;2.65;1.50;;;;;;;;;;4969256;28;20456;-70
2022/06/11 05:21:58;;;;;;;3.42;1.77;;;;;;;;;;4970930;28;20356;-70
2022/06/11 05:24:24;;;;;;;1.73;1.30;;;;;;;;;;4972723;28;20052;-69
2022/06/11 05:26:53;;;;;;;1.48;1.38;;;;;;;;;;4972852;28;20416;-70
2022/06/11 05:29:35;;;;;;;2.40;1.83;;;;;;;;;;4972069;28;20445;-69
2022/06/11 05:32:00;;;;;;;2.88;1.75;;;;;;;;;;4972528;28;20428;-69
2022/06/11 05:34:27;;;;;;;1.90;1.50;;;;;;;;;;4971047;28;20348;-70
2022/06/11 05:36:52;;;;;;;2.10;1.50;;;;;;;;;;4970782;28;20452;-70
2022/06/11 05:39:18;;;;;;;1.70;1.42;;;;;;;;;;4974034;28;20439;-70
2022/06/11 05:41:43;;;;;;;2.75;1.70;;;;;;;;;;4972564;28;20364;-69
2022/06/11 05:44:09;;;;;;;1.85;1.65;;;;;;;;;;4972410;28;20207;-69
2022/06/11 05:46:35;;;;;;;2.45;1.80;;;;;;;;;;4971897;28;20459;-70
2022/06/11 05:49:04;;;;;;;2.05;1.60;;;;;;;;;;4970649;28;20534;-69
2022/06/11 05:51:37;;;;;;;2.17;1.40;;;;;;;;;;4971955;28;20407;-69
2022/06/11 05:54:06;;;;;;;2.33;1.60;;;;;;;;;;4970801;28;20325;-70
2022/06/11 05:56:32;;;;;;;1.85;1.50;;;;;;;;;;4955076;28;20336;-70
2022/06/11 05:59:00;;;;;;;2.40;1.70;;;;;;;;;;4971102;28;20372;-70
2022/06/11 06:01:29;;;;;;;2.15;1.40;;;;;;;;;;4970129;28;20391;-69
2022/06/11 06:03:55;;;;;;;2.47;1.25;;;;;;;;;;4970380;28;20103;-69
2022/06/11 06:06:20;;;;;;;2.60;1.80;;;;;;;;;;4971632;28;20026;-69
2022/06/11 06:08:46;;;;;;;1.65;1.30;;;;;;;;;;4970351;28;20052;-70
2022/06/11 06:11:11;;;;;;;1.60;1.33;;;;;;;;;;4970411;28;20087;-69
2022/06/11 06:13:46;;;;;;;1.48;1.33;;;;;;;;;;4971566;28;20375;-69
2022/06/11 06:16:15;;;;;;;2.95;1.40;;;;;;;;;;4970589;28;20407;-68
2022/06/11 06:18:40;;;;;;;1.90;1.45;;;;;;;;;;4973170;28;20117;-70
2022/06/11 06:21:06;;;;;;;1.35;1.25;;;;;;;;;;4989449;28;20444;-69
2022/06/11 06:23:32;;;;;;;1.95;1.50;;;;;;;;;;4991595;28;20388;-69
2022/06/11 06:25:58;;;;;;;1.73;1.48;;;;;;;;;;4973069;28;20424;-69
2022/06/11 06:28:23;;;;;;;1.73;1.45;;;;;;;;;;4973175;28;20467;-69
2022/06/11 06:30:48;;;;;;;2.17;1.48;;;;;;;;;;4990514;28;20402;-69
2022/06/11 06:33:15;;;;;;;1.42;1.30;;;;;;;;;;4991060;28;20055;-69
2022/06/11 06:35:40;;;;;;;3.30;1.48;;;;;;;;;;4973392;28;20349;-68
2022/06/11 06:38:06;;;;;;;1.40;1.15;;;;;;;;;;4973376;28;20379;-69
2022/06/11 06:40:32;;;;;;;2.22;1.40;;;;;;;;;;4990822;28;20102;-69
2022/06/11 06:42:57;;;;;;;1.88;1.33;;;;;;;;;;4990861;28;20506;-69
2022/06/11 06:45:22;;;;;;;2.28;1.50;;;;;;;;;;4990653;28;20421;-69
2022/06/11 06:47:48;;;;;;;2.30;1.48;;;;;;;;;;4991652;28;20497;-68
2022/06/11 06:50:14;;;;;;;1.63;1.10;;;;;;;;;;4990510;28;20099;-69
2022/06/11 06:52:39;;;;;;;2.33;1.40;;;;;;;;;;4972800;28;20455;-69
2022/06/11 06:55:06;;;;;;;2.38;1.10;;;;;;;;;;4991228;28;20388;-69
2022/06/11 06:57:32;;;;;;;1.63;1.10;;;;;;;;;;4990428;28;20336;-69
2022/06/11 06:59:58;;;;;;;3.03;1.67;;;;;;;;;;4990342;28;20029;-70
2022/06/11 07:02:25;;;;;;;1.23;0.95;;;;;;;;;;4991189;28;20496;-69
2022/06/11 07:04:50;;;;;;;2.00;1.25;;;;;;;;;;4991517;28;20320;-68
2022/06/11 07:07:17;;;;;;;1.20;1.10;;;;;;;;;;4990595;28;20331;-69
2022/06/11 07:09:43;;;;;;;1.35;1.05;;;;;;;;;;4990704;28;20386;-69
2022/06/11 07:12:08;;;;;;;2.08;1.40;;;;;;;;;;4973713;28;20149;-69
2022/06/11 07:14:34;;;;;;;2.38;1.42;;;;;;;;;;4955963;28;20333;-68
2022/06/11 07:17:02;;;;;;;1.45;1.30;;;;;;;;;;4990539;28;20406;-68
2022/06/11 07:19:32;;;;;;;1.40;1.00;;;;;;;;;;4968857;28;20045;-68
2022/06/11 07:22:03;;;;;;;3.03;1.65;;;;;;;;;;4968610;28;20022;-69
2022/06/11 07:24:31;;;;;;;3.03;1.17;;;;;;;;;;4970262;28;20432;-68
2022/06/11 07:27:01;;;;;;;1.67;1.23;;;;;;;;;;4968787;28;20449;-69
2022/06/11 07:29:34;;;;;;;2.20;1.17;;;;;;;;;;4970434;28;20179;-68
2022/06/11 07:32:03;;;;;;;1.90;1.05;;;;;;;;;;4969097;28;20513;-68
2022/06/11 07:34:29;;;;;;;1.27;1.00;;;;;;;;;;4970548;28;20034;-69
2022/06/11 07:36:56;;;;;;;2.10;0.98;;;;;;;;;;4968485;28;20425;-68
2022/06/11 07:39:22;;;;;;;1.95;1.23;;;;;;;;;;4968650;28;20427;-68
2022/06/11 07:41:48;;;;;;;1.63;1.27;;;;;;;;;;4969048;28;20428;-68
2022/06/11 07:44:13;;;;;;;2.03;1.08;;;;;;;;;;4970713;28;20460;-68
2022/06/11 07:46:38;;;;;;;1.25;1.15;;;;;;;;;;4970023;28;20451;-69
2022/06/11 07:49:04;;;;;;;1.88;1.08;;;;;;;;;;4969933;28;20360;-68
2022/06/11 07:51:29;;;;;;;1.65;1.02;;;;;;;;;;4968277;28;20088;-68
2022/06/11 07:53:54;;;;;;;1.85;1.33;;;;;;;;;;4969918;28;20392;-68
2022/06/11 07:56:20;;;;;;;2.40;1.42;;;;;;;;;;4969686;28;20033;-68
2022/06/11 07:58:46;;;;;;;1.60;1.10;;;;;;;;;;4969838;28;20403;-68
2022/06/11 08:01:11;;;;;;;1.20;1.08;;;;;;;;;;4967972;28;20420;-68
2022/06/11 08:03:38;;;;;;;1.30;0.93;;;;;;;;;;4970620;28;20454;-68
2022/06/11 08:06:06;;;;;;;1.20;0.93;;;;;;;;;;4969817;28;20432;-68
2022/06/11 08:08:32;;;;;;;1.42;0.98;;;;;;;;;;4969427;28;20025;-68
2022/06/11 08:10:59;;;;;;;1.77;1.20;;;;;;;;;;4967746;28;20416;-68
2022/06/11 08:13:25;;;;;;;1.05;0.95;;;;;;;;;;4967744;28;20451;-69
2022/06/11 08:15:52;;;;;;;2.17;1.30;;;;;;;;;;4968265;28;20353;-69
2022/06/11 08:18:18;;;;;;;1.20;1.10;;;;;;;;;;4968885;28;20420;-68
2022/06/11 08:20:44;;;;;;;1.15;0.80;;;;;;;;;;4984582;28;20455;-68
2022/06/11 08:23:10;;;;;;;2.60;1.02;;;;;;;;;;4989183;28;20437;-68
2022/06/11 08:25:35;;;;;;;2.05;0.90;;;;;;;;;;4989839;28;20021;-68
2022/06/11 08:28:00;;;;;;;1.20;1.02;;;;;;;;;;4989032;28;20400;-68
2022/06/11 08:30:28;;;;;;;1.58;1.30;;;;;;;;;;4971203;28;20409;-68
2022/06/11 08:32:54;;;;;;;1.90;1.00;;;;;;;;;;4971739;28;20051;-68
2022/06/11 08:35:22;;;;;;;1.38;0.95;;;;;;;;;;4989233;28;20420;-69
2022/06/11 08:37:48;;;;;;;1.27;0.90;;;;;;;;;;4989124;28;20570;-68
2022/06/11 08:40:30;;;;;;;1.83;1.25;;;;;;;;;;4970810;28;20415;-68
2022/06/11 08:43:11;;;;;;;1.70;1.17;;;;;;;;;;4970872;28;20448;-68
2022/06/11 08:45:50;;;;;;;1.77;0.80;;;;;;;;;;4971137;28;20496;-68
2022/06/11 08:48:38;;;;;;;2.50;1.05;;;;;;;;;;4970452;28;20426;-69
2022/06/11 08:51:07;;;;;;;2.03;1.33;;;;;;;;;;4988797;28;20416;-68
2022/06/11 08:53:35;;;;;;;1.52;1.05;;;;;;;;;;4991746;28;20414;-69
2022/06/11 08:56:01;;;;;;;0.95;0.80;;;;;;;;;;4993670;28;20350;-69
2022/06/11 08:58:53;;;;;;;1.58;1.00;;;;;;;;;;4975078;28;20052;-68
2022/06/11 09:01:28;;;;;;;3.17;1.05;;;;;;;;;;4974534;28;20460;-68
2022/06/11 09:04:03;;;;;;;1.02;0.88;;;;;;;;;;4992641;28;20498;-68
2022/06/11 09:06:28;;;;;;;1.10;0.90;;;;;;;;;;4975180;28;20332;-68
2022/06/11 09:09:04;;;;;;;1.00;0.90;;;;;;;;;;4993005;28;20313;-69
2022/06/11 09:12:00;;;;;;;1.67;0.90;;;;;;;;;;4974507;28;20029;-68
2022/06/11 09:15:04;;;;;;;1.50;1.00;;;;;;;;;;4968235;28;20490;-68
2022/06/11 09:17:57;;;;;;;1.30;1.20;;;;;;;;;;4950614;28;20412;-68
2022/06/11 09:20:34;;;;;;;1.02;0.90;;;;;;;;;;4991678;28;20436;-69
2022/06/11 09:23:39;;;;;;;1.17;0.95;;;;;;;;;;4992182;28;20412;-69
2022/06/11 09:26:30;;;;;;;1.65;1.20;;;;;;;;;;4957683;28;20371;-68
2022/06/11 09:29:09;;;;;;;1.20;0.80;;;;;;;;;;4992794;28;20317;-69
2022/06/11 09:31:36;;;;;;;1.15;1.05;;;;;;;;;;4991946;28;20044;-68
2022/06/11 09:34:28;;;;;;;1.40;1.05;;;;;;;;;;4992492;28;20455;-68
2022/06/11 09:37:05;;;;;;;2.85;1.20;;;;;;;;;;4992596;28;20459;-68
2022/06/11 09:39:41;;;;;;;1.58;0.90;;;;;;;;;;4974160;28;20460;-68
2022/06/11 09:42:34;;;;;;;1.30;1.00;;;;;;;;;;4974679;28;20366;-68
2022/06/11 09:45:21;;;;;;;1.95;0.80;;;;;;;;;;4991918;28;20037;-68
2022/06/11 09:48:11;;;;;;;1.30;0.88;;;;;;;;;;4973785;28;20090;-68
2022/06/11 09:51:03;;;;;;;1.05;0.98;;;;;;;;;;4991392;28;20359;-68
2022/06/11 09:53:38;;;;;;;0.88;0.82;;;;;;;;;;4973922;28;20317;-68
2022/06/11 09:56:17;;;;;;;1.73;0.90;;;;;;;;;;4973888;28;20431;-68
2022/06/11 09:58:46;;;;;;;1.27;0.85;;;;;;;;;;4973557;28;20340;-68
2022/06/11 10:01:16;;;;;;;1.10;0.90;;;;;;;;;;4991090;28;20436;-69
2022/06/11 10:03:47;;;;;;;1.08;0.73;;;;;;;;;;4973679;28;20411;-70
2022/06/11 10:06:16;;;;;;;1.17;0.68;;;;;;;;;;4991368;28;20395;-68
2022/06/11 10:08:54;;;;;;;1.67;1.08;;;;;;;;;;4973181;28;20428;-68
2022/06/11 10:11:44;;;;;;;1.50;1.00;;;;;;;;;;4991347;28;20418;-68
2022/06/11 10:14:29;;;;;;;2.90;0.82;;;;;;;;;;4973439;28;20451;-67
2022/06/11 10:17:11;;;;;;;0.88;0.82;;;;;;;;;;4975144;28;20024;-69
2022/06/11 10:19:51;;;;;;;1.10;0.90;;;;;;;;;;4991072;28;20381;-68
2022/06/11 10:22:31;;;;;;;1.13;0.90;;;;;;;;;;4973746;28;20447;-68
2022/06/11 10:25:19;;;;;;;1.55;0.80;;;;;;;;;;4973077;28;20519;-68
2022/06/11 10:27:47;;;;;;;;;;;;;;;;;;4980824;28;20355;-69
2022/06/11 10:30:45;;;;;;;0.82;0.80;;;;;;;;;;4990511;28;20271;-68
2022/06/11 10:33:22;;;;;;;1.20;0.90;;;;;;;;;;4966120;28;20464;-68
2022/06/11 10:35:51;;;;;;;0.75;0.70;;;;;;;;;;4973863;28;20497;-70
2022/06/11 10:38:38;;;;;;;1.02;0.90;;;;;;;;;;4972839;28;20364;-69
2022/06/11 10:41:06;;;;;;;0.82;0.73;;;;;;;;;;4990684;28;20497;-67
2022/06/11 10:43:47;;;;;;;1.73;0.80;;;;;;;;;;4973440;28;20416;-68
2022/06/11 10:46:13;;;;;;;0.93;0.70;;;;;;;;;;4972459;28;20410;-68
2022/06/11 10:48:38;;;;;;;1.33;0.98;;;;;;;;;;4973411;28;20100;-68
2022/06/11 10:51:33;;;;;;;1.30;0.70;;;;;;;;;;4990242;28;20305;-68
2022/06/11 10:54:11;;;;;;;1.67;1.00;;;;;;;;;;4955791;28;20436;-68
2022/06/11 10:56:43;;;;;;;1.08;0.88;;;;;;;;;;4972984;28;20391;-69
2022/06/11 10:59:19;;;;;;;2.25;0.88;;;;;;;;;;4972767;28;20424;-69
2022/06/11 11:01:48;;;;;;;1.35;0.70;;;;;;;;;;4972729;28;20466;-66
2022/06/11 11:04:13;;;;;;;1.10;0.85;;;;;;;;;;4972545;28;20047;-66
2022/06/11 11:06:38;;;;;;;4.07;1.10;;;;;;;;;;4990127;28;20424;-66
2022/06/11 11:09:22;;;;;;;0.60;0.60;;;;;;;;;;4990369;28;20137;-66
2022/06/11 11:11:57;;;;;;;0.40;0.40;;;;;;;;;;4990231;28;20029;-66
2022/06/11 11:14:32;;;;;;;1.77;0.80;;;;;;;;;;4972234;28;20398;-67
2022/06/11 11:17:02;;;;;;;0.43;0.43;;;;;;;;;;4972204;28;20501;-66
2022/06/11 11:19:31;;;;;;;1.23;0.70;;;;;;;;;;4968536;28;20456;-66
2022/06/11 11:21:59;;;;;;;0.80;0.60;;;;;;;;;;4968882;28;20467;-67
2022/06/11 11:24:34;;;;;;;1.00;0.65;;;;;;;;;;4971375;28;20373;-66
2022/06/11 11:27:04;;;;;;;0.50;0.50;;;;;;;;;;4968588;28;20025;-66
2022/06/11 11:29:40;;;;;;;0.77;0.60;;;;;;;;;;4968515;28;20332;-66
2022/06/11 11:32:34;;;;;;;0.57;0.50;;;;;;;;;;4968870;28;20471;-67
2022/06/11 11:35:19;;;;;;;1.00;0.52;;;;;;;;;;4970019;28;20456;-67
2022/06/11 11:37:46;;;;;;;0.85;0.57;;;;;;;;;;4969924;28;20107;-66
2022/06/11 11:40:31;;;;;;;2.47;0.50;;;;;;;;;;4970859;28;20026;-67
2022/06/11 11:43:08;;;;;;;0.85;0.32;;;;;;;;;;4970567;28;20029;-67
2022/06/11 11:46:00;;;;;;;1.15;0.80;;;;;;;;;;4968341;28;20444;-66
2022/06/11 11:48:25;;;;;;;0.80;0.63;;;;;;;;;;4968421;28;20102;-67
2022/06/11 11:50:54;;;;;;;1.42;0.40;;;;;;;;;;4971085;28;20440;-67
2022/06/11 11:53:24;;;;;;;;;;;;;;;;;;4968603;28;20428;-67
2022/06/11 11:55:59;;;;;;;0.50;0.50;;;;;;;;;;4985020;28;19983;-66
2022/06/11 11:58:32;;;;;;;0.85;0.70;;;;;;;;;;4968553;28;20439;-66
2022/06/11 12:01:01;;;;;;;0.50;0.50;;;;;;;;;;4967998;28;20435;-66
2022/06/11 12:03:35;;;;;;;1.42;0.70;;;;;;;;;;4969549;28;20462;-66
2022/06/11 12:06:03;;;;;;;0.70;0.50;;;;;;;;;;4952046;28;20388;-66
2022/06/11 12:08:30;;;;;;;0.85;0.45;;;;;;;;;;4970162;28;20436;-66
2022/06/11 12:11:00;;;;;;;0.73;0.40;;;;;;;;;;4968141;28;20025;-67
2022/06/11 12:13:48;;;;;;;0.55;0.50;;;;;;;;;;4968240;28;20355;-67
2022/06/11 12:16:36;;;;;;;0.68;0.50;;;;;;;;;;4967851;28;20022;-67
2022/06/11 12:19:37;;;;;;;0.88;0.50;;;;;;;;;;4968846;28;20048;-66
2022/06/11 12:22:25;;;;;;;0.70;0.60;;;;;;;;;;4892693;28;20397;-66
2022/06/11 12:24:50;;;;;;;0.30;0.30;;;;;;;;;;4965723;28;20582;-66
2022/06/11 12:27:42;;;;;;;3.63;0.50;;;;;;;;;;4988579;28;20336;-67
2022/06/11 12:30:21;;;;;;;0.85;0.60;;;;;;;;;;4988308;28;20411;-67
2022/06/11 12:32:47;;;;;;;0.60;0.60;;;;;;;;;;4971719;28;20454;-66
2022/06/11 12:35:15;;;;;;;0.85;0.40;;;;;;;;;;4971167;28;20408;-66
2022/06/11 12:37:48;;;;;;;1.25;0.52;;;;;;;;;;4988858;28;20332;-65
2022/06/11 12:40:17;;;;;;;0.60;0.50;;;;;;;;;;4988373;28;20431;-66
2022/06/11 12:42:46;;;;;;;1.45;0.47;;;;;;;;;;4971155;28;20316;-66
2022/06/11 12:45:26;;;;;;;2.60;0.55;;;;;;;;;;4988655;28;20402;-66
2022/06/11 12:48:10;;;;;;;0.43;0.32;;;;;;;;;;4989090;28;20498;-66
2022/06/11 12:50:53;;;;;;;0.57;0.57;;;;;;;;;;4988390;28;20438;-66
2022/06/11 12:53:23;;;;;;;0.50;0.40;;;;;;;;;;4970589;28;20537;-66
2022/06/11 12:55:52;;;;;;;0.35;0.30;;;;;;;;;;4970737;28;20340;-66
2022/06/11 12:58:46;;;;;;;0.60;0.52;;;;;;;;;;4989177;28;20464;-67
2022/06/11 13:01:16;;;;;;;0.70;0.38;;;;;;;;;;4989448;28;20370;-66
2022/06/11 13:03:56;;;;;;;0.50;0.50;;;;;;;;;;4988378;28;20439;-66
2022/06/11 13:06:39;;;;;;;0.57;0.43;;;;;;;;;;4988327;28;20033;-66
2022/06/11 13:09:35;;;;;;;0.98;0.52;;;;;;;;;;4988829;28;20459;-67
2022/06/11 13:12:17;;;;;;;0.63;0.50;;;;;;;;;;4970710;28;20309;-66
2022/06/11 13:14:43;;;;;;;0.22;0.20;;;;;;;;;;4954292;28;20317;-66
2022/06/11 13:17:33;;;;;;;1.13;0.70;;;;;;;;;;4988123;28;20021;-66
2022/06/11 13:20:26;;;;;;;1.02;0.70;;;;;;;;;;4988320;28;20532;-66
2022/06/11 13:23:29;;;;;;;1.67;0.40;;;;;;;;;;4988397;28;20371;-66
2022/06/11 13:26:07;;;;;;;1.13;0.60;;;;;;;;;;4988376;28;20430;-65
2022/06/11 13:29:10;;;;;;;2.33;0.80;;;;;;;;;;4970985;28;20459;-66
2022/06/11 13:32:05;;;;;;;1.33;0.95;;;;;;;;;;4989929;28;20550;-66
2022/06/11 13:34:38;;;;;;;1.30;0.63;;;;;;;;;;4970399;28;20440;-66
2022/06/11 13:37:42;;;;;;;0.60;0.60;;;;;;;;;;4990006;28;20411;-66
2022/06/11 13:40:20;;;;;;;1.30;0.75;;;;;;;;;;4909631;28;20395;-65
2022/06/11 13:43:04;;;;;;;1.37;0.70;;;;;;;;;;4911535;28;20449;-66
2022/06/11 13:45:53;;;;;;;0.93;0.70;;;;;;;;;;4980572;28;20598;-66
2022/06/11 13:48:47;;;;;;;0.57;0.57;;;;;;;;;;4973878;28;20319;-65
2022/06/11 13:51:39;;;;;;;0.60;0.50;;;;;;;;;;4993431;28;20420;-65
2022/06/11 13:57:43;;;;;;;1.30;1.00;;;;;;;;;;4977163;28;20451;-66
2022/06/11 14:00:32;;;;;;;1.10;0.68;;;;;;;;;;4973903;28;20387;-66
2022/06/11 14:02:57;;;;;;;;;;;;;;;;;;4974609;28;20423;-65
2022/06/11 14:05:30;;;;;;;1.75;0.70;;;;;;;;;;4991066;28;20022;-65
2022/06/11 14:07:57;;;;;;;1.42;0.80;;;;;;;;;;4991460;28;20335;-65
2022/06/11 14:10:23;;;;;;;2.35;0.70;;;;;;;;;;4973854;28;20324;-66
2022/06/11 14:13:46;;;;;;;4.35;0.80;;;;;;;;;;4991498;28;20048;-66
2022/06/11 14:16:40;;;;;;;1.00;0.80;;;;;;;;;;4910801;28;20532;-65
2022/06/11 14:19:14;;;;;;;0.93;0.70;;;;;;;;;;4909149;28;20105;-65
2022/06/11 14:21:39;;;;;;;1.85;0.80;;;;;;;;;;4962637;28;20403;-65
2022/06/11 14:24:09;;;;;;;1.05;0.82;;;;;;;;;;4972076;28;20135;-65
2022/06/11 14:26:50;;;;;;;1.90;0.80;;;;;;;;;;4970196;28;20376;-65
2022/06/11 14:29:26;;;;;;;4.00;0.85;;;;;;;;;;4971226;28;20404;-66
2022/06/11 14:31:55;;;;;;;1.23;0.88;;;;;;;;;;4971243;28;20522;-67
2022/06/11 14:34:25;;;;;;;0.93;0.70;;;;;;;;;;4971444;28;20431;-66
2022/06/11 14:37:04;;;;;;;0.90;0.60;;;;;;;;;;4971877;28;20432;-65
2022/06/11 14:39:38;;;;;;;3.50;0.95;;;;;;;;;;4969705;28;20444;-66
2022/06/11 14:42:20;;;;;;;0.57;0.50;;;;;;;;;;4969709;28;20092;-65
2022/06/11 14:45:26;;;;;;;0.80;0.80;;;;;;;;;;4970766;28;20298;-66
2022/06/11 14:47:58;;;;;;;1.70;0.65;;;;;;;;;;4971013;28;20444;-66
2022/06/11 14:50:53;;;;;;;1.10;0.68;;;;;;;;;;4969271;28;20318;-67
2022/06/11 14:53:34;;;;;;;0.50;0.50;;;;;;;;;;4969422;28;20452;-66
2022/06/11 14:56:13;;;;;;;2.85;0.98;;;;;;;;;;4970783;28;20452;-66
2022/06/11 14:58:57;;;;;;;0.82;0.50;;;;;;;;;;4970763;28;20316;-66
2022/06/11 15:01:49;;;;;;;1.00;0.90;;;;;;;;;;4971019;28;20506;-66
2022/06/11 15:04:25;;;;;;;1.33;0.70;;;;;;;;;;4969493;28;20021;-66
2022/06/11 15:07:06;;;;;;;2.00;0.70;;;;;;;;;;4970113;28;20428;-66
2022/06/11 15:09:52;;;;;;;2.05;0.90;;;;;;;;;;4970824;28;20104;-66
2022/06/11 15:12:36;;;;;;;3.33;0.85;;;;;;;;;;4969156;28;20364;-65
2022/06/11 15:15:34;;;;;;;1.20;0.80;;;;;;;;;;4970597;28;20461;-66
2022/06/11 15:18:08;;;;;;;0.63;0.63;;;;;;;;;;4969364;28;20037;-66
2022/06/11 15:20:37;;;;;;;1.20;0.70;;;;;;;;;;4952657;28;20427;-66
2022/06/11 15:23:13;;;;;;;1.25;0.70;;;;;;;;;;4968924;28;20441;-67
2022/06/11 15:25:39;;;;;;;0.85;0.65;;;;;;;;;;4970895;28;20428;-66
2022/06/11 15:28:08;;;;;;;1.27;0.80;;;;;;;;;;4969163;28;20436;-66